sensor_id;sensor_type;location;lat;lon;timestamp;pressure;altitude;pressure_sealevel;temperature;humidity
80186;BME280;69904;52.122;5.422;2023-08-31T00:00:50;100787.22;;;12.06;84.73
80186;BME280;69904;52.122;5.422;2023-08-31T00:03:20;100799.28;;;12.04;85.15
80186;BME280;69904;52.122;5.422;2023-08-31T00:05:46;100793.03;;;12.10;84.97
80186;BME280;69904;52.122;5.422;2023-08-31T00:08:13;100797.41;;;12.11;85.37
80186;BME280;69904;52.122;5.422;2023-08-31T00:10:40;100803.22;;;12.14;85.10
80186;BME280;69904;52.122;5.422;2023-08-31T00:13:06;100806.56;;;12.16;85.45
80186;BME280;69904;52.122;5.422;2023-08-31T00:15:35;100798.47;;;12.10;85.88
80186;BME280;69904;52.122;5.422;2023-08-31T00:18:03;100798.66;;;12.08;85.43
80186;BME280;69904;52.122;5.422;2023-08-31T00:20:32;100797.41;;;12.04;85.71
80186;BME280;69904;52.122;5.422;2023-08-31T00:23:00;100795.34;;;12.00;86.02
80186;BME280;69904;52.122;5.422;2023-08-31T00:25:26;100787.00;;;11.95;86.01
80186;BME280;69904;52.122;5.422;2023-08-31T00:27:54;100786.81;;;11.96;85.97
80186;BME280;69904;52.122;5.422;2023-08-31T00:30:21;100783.06;;;11.97;86.04
80186;BME280;69904;52.122;5.422;2023-08-31T00:32:47;100786.38;;;11.99;86.23
80186;BME280;69904;52.122;5.422;2023-08-31T00:35:14;100789.72;;;12.01;86.43
80186;BME280;69904;52.122;5.422;2023-08-31T00:37:40;100802.41;;;12.01;86.68
80186;BME280;69904;52.122;5.422;2023-08-31T00:40:07;100802.19;;;12.02;86.51
80186;BME280;69904;52.122;5.422;2023-08-31T00:42:35;100807.59;;;12.09;86.16
80186;BME280;69904;52.122;5.422;2023-08-31T00:45:03;100808.63;;;12.08;86.51
80186;BME280;69904;52.122;5.422;2023-08-31T00:47:29;100800.75;;;12.06;86.54
80186;BME280;69904;52.122;5.422;2023-08-31T00:49:57;100800.75;;;12.06;86.64
80186;BME280;69904;52.122;5.422;2023-08-31T00:52:24;100799.28;;;12.04;86.66
80186;BME280;69904;52.122;5.422;2023-08-31T00:54:51;100791.59;;;12.01;87.04
80186;BME280;69904;52.122;5.422;2023-08-31T00:57:18;100789.50;;;12.03;87.11
80186;BME280;69904;52.122;5.422;2023-08-31T00:59:45;100793.69;;;12.05;87.27
80186;BME280;69904;52.122;5.422;2023-08-31T01:02:59;100780.16;;;12.05;87.15
80186;BME280;69904;52.122;5.422;2023-08-31T01:05:39;100788.66;;;12.02;87.52
80186;BME280;69904;52.122;5.422;2023-08-31T01:11:24;100800.13;;;12.04;87.77
80186;BME280;69904;52.122;5.422;2023-08-31T01:14:01;100800.31;;;12.03;87.84
80186;BME280;69904;52.122;5.422;2023-08-31T01:16:32;100798.03;;;12.00;87.53
80186;BME280;69904;52.122;5.422;2023-08-31T01:19:04;100799.91;;;11.99;87.65
80186;BME280;69904;52.122;5.422;2023-08-31T01:21:38;100794.94;;;11.96;88.10
80186;BME280;69904;52.122;5.422;2023-08-31T01:24:07;100787.22;;;11.93;88.17
80186;BME280;69904;52.122;5.422;2023-08-31T01:26:35;100794.09;;;11.96;88.10
80186;BME280;69904;52.122;5.422;2023-08-31T01:29:02;100795.97;;;11.95;87.91
80186;BME280;69904;52.122;5.422;2023-08-31T01:31:28;100794.28;;;11.94;88.20
80186;BME280;69904;52.122;5.422;2023-08-31T01:33:55;100797.00;;;11.94;88.13
80186;BME280;69904;52.122;5.422;2023-08-31T01:36:29;100794.69;;;11.98;88.32
80186;BME280;69904;52.122;5.422;2023-08-31T01:39:17;100797.63;;;11.96;87.96
80186;BME280;69904;52.122;5.422;2023-08-31T01:41:51;100797.19;;;11.93;88.52
80186;BME280;69904;52.122;5.422;2023-08-31T01:44:21;100803.88;;;11.90;88.36
80186;BME280;69904;52.122;5.422;2023-08-31T01:46:52;100799.50;;;11.89;88.57
80186;BME280;69904;52.122;5.422;2023-08-31T01:49:20;100802.41;;;11.88;88.90
80186;BME280;69904;52.122;5.422;2023-08-31T01:51:47;100797.81;;;11.88;88.54
80186;BME280;69904;52.122;5.422;2023-08-31T01:54:14;100803.03;;;11.90;88.82
80186;BME280;69904;52.122;5.422;2023-08-31T01:56:40;100820.31;;;12.02;89.09
80186;BME280;69904;52.122;5.422;2023-08-31T01:59:07;100825.91;;;12.13;88.76
80186;BME280;69904;52.122;5.422;2023-08-31T02:01:33;100824.88;;;12.21;88.53
80186;BME280;69904;52.122;5.422;2023-08-31T02:04:00;100828.19;;;12.30;88.57
80186;BME280;69904;52.122;5.422;2023-08-31T02:06:26;100818.22;;;12.37;87.85
80186;BME280;69904;52.122;5.422;2023-08-31T02:08:53;100825.69;;;12.35;88.16
80186;BME280;69904;52.122;5.422;2023-08-31T02:11:19;100816.34;;;12.31;88.12
80186;BME280;69904;52.122;5.422;2023-08-31T02:13:45;100817.19;;;12.38;88.00
80186;BME280;69904;52.122;5.422;2023-08-31T02:16:12;100818.22;;;12.43;87.79
80186;BME280;69904;52.122;5.422;2023-08-31T02:18:38;100820.09;;;12.43;87.76
80186;BME280;69904;52.122;5.422;2023-08-31T02:21:05;100819.69;;;12.39;87.89
80186;BME280;69904;52.122;5.422;2023-08-31T02:23:33;100820.28;;;12.41;87.65
80186;BME280;69904;52.122;5.422;2023-08-31T02:26:00;100815.28;;;12.45;87.62
80186;BME280;69904;52.122;5.422;2023-08-31T02:28:26;100821.97;;;12.49;87.49
80186;BME280;69904;52.122;5.422;2023-08-31T02:31:01;100826.94;;;12.52;87.43
80186;BME280;69904;52.122;5.422;2023-08-31T02:33:28;100827.34;;;12.55;87.19
80186;BME280;69904;52.122;5.422;2023-08-31T02:35:55;100823.38;;;12.58;87.46
80186;BME280;69904;52.122;5.422;2023-08-31T02:38:22;100833.38;;;12.57;87.33
80186;BME280;69904;52.122;5.422;2023-08-31T02:40:49;100813.84;;;12.49;87.00
80186;BME280;69904;52.122;5.422;2023-08-31T02:43:16;100824.22;;;12.52;86.72
80186;BME280;69904;52.122;5.422;2023-08-31T02:45:42;100812.78;;;12.50;87.04
80186;BME280;69904;52.122;5.422;2023-08-31T02:48:09;100821.97;;;12.49;87.13
80186;BME280;69904;52.122;5.422;2023-08-31T02:50:37;100811.34;;;12.47;86.96
80186;BME280;69904;52.122;5.422;2023-08-31T02:53:05;100820.50;;;12.40;87.63
80186;BME280;69904;52.122;5.422;2023-08-31T02:55:34;100817.19;;;12.38;87.89
80186;BME280;69904;52.122;5.422;2023-08-31T02:58:01;100813.22;;;12.34;88.01
80186;BME280;69904;52.122;5.422;2023-08-31T03:00:27;100812.81;;;12.30;88.05
80186;BME280;69904;52.122;5.422;2023-08-31T03:02:54;100801.56;;;12.27;87.81
80186;BME280;69904;52.122;5.422;2023-08-31T03:05:21;100815.75;;;12.29;87.89
80186;BME280;69904;52.122;5.422;2023-08-31T03:07:47;100815.09;;;12.27;88.26
80186;BME280;69904;52.122;5.422;2023-08-31T03:10:14;100811.13;;;12.29;88.23
80186;BME280;69904;52.122;5.422;2023-08-31T03:12:40;100809.91;;;12.32;88.26
80186;BME280;69904;52.122;5.422;2023-08-31T03:15:07;100807.19;;;12.32;88.32
80186;BME280;69904;52.122;5.422;2023-08-31T03:17:34;100808.44;;;12.36;88.14
80186;BME280;69904;52.122;5.422;2023-08-31T03:20:00;100808.84;;;12.39;88.21
80186;BME280;69904;52.122;5.422;2023-08-31T03:22:27;100817.38;;;12.43;88.31
80186;BME280;69904;52.122;5.422;2023-08-31T03:24:53;100812.38;;;12.46;88.30
80186;BME280;69904;52.122;5.422;2023-08-31T03:27:20;100821.13;;;12.48;88.02
80186;BME280;69904;52.122;5.422;2023-08-31T03:29:46;100826.53;;;12.48;88.09
80186;BME280;69904;52.122;5.422;2023-08-31T03:32:13;100827.78;;;12.46;87.96
80186;BME280;69904;52.122;5.422;2023-08-31T03:34:39;100821.75;;;12.44;88.00
80186;BME280;69904;52.122;5.422;2023-08-31T03:37:06;100810.09;;;12.37;88.11
80186;BME280;69904;52.122;5.422;2023-08-31T03:39:32;100810.31;;;12.29;88.35
80186;BME280;69904;52.122;5.422;2023-08-31T03:41:59;100808.44;;;12.22;88.63
80186;BME280;69904;52.122;5.422;2023-08-31T03:44:25;100816.13;;;12.19;88.66
80186;BME280;69904;52.122;5.422;2023-08-31T03:46:51;100810.97;;;12.17;88.78
80186;BME280;69904;52.122;5.422;2023-08-31T03:49:18;100824.06;;;12.20;88.57
80186;BME280;69904;52.122;5.422;2023-08-31T03:51:44;100833.41;;;12.24;88.88
80186;BME280;69904;52.122;5.422;2023-08-31T03:54:11;100838.41;;;12.28;88.59
80186;BME280;69904;52.122;5.422;2023-08-31T03:56:39;100838.63;;;12.33;88.58
80186;BME280;69904;52.122;5.422;2023-08-31T03:59:06;100834.25;;;12.32;88.52
80186;BME280;69904;52.122;5.422;2023-08-31T04:01:32;100837.78;;;12.32;88.83
80186;BME280;69904;52.122;5.422;2023-08-31T04:03:59;100831.34;;;12.33;88.82
80186;BME280;69904;52.122;5.422;2023-08-31T04:06:25;100829.03;;;12.30;88.95
80186;BME280;69904;52.122;5.422;2023-08-31T04:08:52;100833.41;;;12.24;88.64
80186;BME280;69904;52.122;5.422;2023-08-31T04:11:19;100840.91;;;12.22;88.64
80186;BME280;69904;52.122;5.422;2023-08-31T04:13:45;100831.75;;;12.23;89.11
80186;BME280;69904;52.122;5.422;2023-08-31T04:16:12;100841.97;;;12.21;89.26
80186;BME280;69904;52.122;5.422;2023-08-31T04:18:39;100843.00;;;12.20;89.36
80186;BME280;69904;52.122;5.422;2023-08-31T04:21:05;100832.16;;;12.14;89.27
80186;BME280;69904;52.122;5.422;2023-08-31T04:23:32;100836.97;;;12.12;89.45
80186;BME280;69904;52.122;5.422;2023-08-31T04:25:58;100847.78;;;12.12;89.63
80186;BME280;69904;52.122;5.422;2023-08-31T04:28:25;100845.28;;;12.10;89.31
80186;BME280;69904;52.122;5.422;2023-08-31T04:30:52;100835.91;;;12.06;89.55
80186;BME280;69904;52.122;5.422;2023-08-31T04:33:18;100828.66;;;12.07;89.70
80186;BME280;69904;52.122;5.422;2023-08-31T04:35:45;100836.13;;;12.05;90.12
80186;BME280;69904;52.122;5.422;2023-08-31T04:38:11;100844.22;;;12.05;90.13
80186;BME280;69904;52.122;5.422;2023-08-31T04:40:38;100855.06;;;12.05;90.43
80186;BME280;69904;52.122;5.422;2023-08-31T04:43:04;100852.16;;;12.06;90.34
80186;BME280;69904;52.122;5.422;2023-08-31T04:45:31;100855.47;;;12.08;90.11
80186;BME280;69904;52.122;5.422;2023-08-31T04:47:57;100861.72;;;12.09;90.50
80186;BME280;69904;52.122;5.422;2023-08-31T04:50:25;100868.78;;;12.10;90.55
80186;BME280;69904;52.122;5.422;2023-08-31T04:52:52;100864.22;;;12.10;90.59
80186;BME280;69904;52.122;5.422;2023-08-31T04:55:21;100867.75;;;12.11;90.77
80186;BME280;69904;52.122;5.422;2023-08-31T04:57:48;100882.13;;;12.11;90.85
80186;BME280;69904;52.122;5.422;2023-08-31T05:00:14;100879.19;;;12.13;90.82
80186;BME280;69904;52.122;5.422;2023-08-31T05:02:41;100890.44;;;12.10;90.80
80186;BME280;69904;52.122;5.422;2023-08-31T05:05:08;100896.69;;;12.10;90.65
80186;BME280;69904;52.122;5.422;2023-08-31T05:07:34;100893.97;;;12.10;90.82
80186;BME280;69904;52.122;5.422;2023-08-31T05:10:01;100892.94;;;12.11;90.60
80186;BME280;69904;52.122;5.422;2023-08-31T05:12:27;100896.91;;;12.15;90.66
80186;BME280;69904;52.122;5.422;2023-08-31T05:14:54;100901.03;;;12.18;90.90
80186;BME280;69904;52.122;5.422;2023-08-31T05:17:21;100891.91;;;12.19;90.74
80186;BME280;69904;52.122;5.422;2023-08-31T05:19:47;100897.31;;;12.19;90.75
80186;BME280;69904;52.122;5.422;2023-08-31T05:22:14;100904.38;;;12.20;90.68
80186;BME280;69904;52.122;5.422;2023-08-31T05:24:40;100908.78;;;12.21;90.62
80186;BME280;69904;52.122;5.422;2023-08-31T05:27:07;100898.97;;;12.20;90.87
80186;BME280;69904;52.122;5.422;2023-08-31T05:29:34;100900.44;;;12.22;90.91
80186;BME280;69904;52.122;5.422;2023-08-31T05:32:00;100904.00;;;12.23;90.98
80186;BME280;69904;52.122;5.422;2023-08-31T05:34:26;100908.97;;;12.26;91.00
80186;BME280;69904;52.122;5.422;2023-08-31T05:36:53;100908.78;;;12.28;91.03
80186;BME280;69904;52.122;5.422;2023-08-31T05:39:19;100908.56;;;12.29;90.96
80186;BME280;69904;52.122;5.422;2023-08-31T05:41:46;100911.69;;;12.33;90.98
80186;BME280;69904;52.122;5.422;2023-08-31T05:44:12;100912.09;;;12.36;90.79
80186;BME280;69904;52.122;5.422;2023-08-31T05:46:39;100905.66;;;12.37;90.75
80186;BME280;69904;52.122;5.422;2023-08-31T05:49:07;100906.50;;;12.38;91.11
80186;BME280;69904;52.122;5.422;2023-08-31T05:51:34;100911.72;;;12.39;91.20
80186;BME280;69904;52.122;5.422;2023-08-31T05:54:01;100916.06;;;12.40;91.04
80186;BME280;69904;52.122;5.422;2023-08-31T05:56:29;100915.84;;;12.42;90.78
80186;BME280;69904;52.122;5.422;2023-08-31T05:58:55;100932.50;;;12.45;91.11
80186;BME280;69904;52.122;5.422;2023-08-31T06:01:22;100935.84;;;12.47;91.16
80186;BME280;69904;52.122;5.422;2023-08-31T06:03:48;100948.56;;;12.47;91.09
80186;BME280;69904;52.122;5.422;2023-08-31T06:06:15;100948.97;;;12.44;91.07
80186;BME280;69904;52.122;5.422;2023-08-31T06:08:41;100951.03;;;12.42;90.95
80186;BME280;69904;52.122;5.422;2023-08-31T06:11:09;100959.38;;;12.40;91.19
80186;BME280;69904;52.122;5.422;2023-08-31T06:13:37;100953.75;;;12.42;91.02
80186;BME280;69904;52.122;5.422;2023-08-31T06:16:03;100960.00;;;12.42;90.84
80186;BME280;69904;52.122;5.422;2023-08-31T06:18:30;100953.75;;;12.42;91.06
80186;BME280;69904;52.122;5.422;2023-08-31T06:20:57;100950.84;;;12.43;90.83
80186;BME280;69904;52.122;5.422;2023-08-31T06:23:23;100948.97;;;12.44;90.82
80186;BME280;69904;52.122;5.422;2023-08-31T06:25:50;100962.91;;;12.41;91.17
80186;BME280;69904;52.122;5.422;2023-08-31T06:28:16;100953.94;;;12.40;91.16
80186;BME280;69904;52.122;5.422;2023-08-31T06:30:43;100960.00;;;12.42;91.18
80186;BME280;69904;52.122;5.422;2023-08-31T06:33:15;100947.31;;;12.43;91.40
80186;BME280;69904;52.122;5.422;2023-08-31T06:35:42;100949.81;;;12.44;91.62
80186;BME280;69904;52.122;5.422;2023-08-31T06:38:08;100955.22;;;12.44;91.78
80186;BME280;69904;52.122;5.422;2023-08-31T06:40:35;100956.47;;;12.42;91.45
80186;BME280;69904;52.122;5.422;2023-08-31T06:43:01;100947.50;;;12.41;91.49
80186;BME280;69904;52.122;5.422;2023-08-31T06:45:29;100951.69;;;12.44;91.71
80186;BME280;69904;52.122;5.422;2023-08-31T06:47:56;100958.75;;;12.45;91.35
80186;BME280;69904;52.122;5.422;2023-08-31T06:50:22;100958.53;;;12.46;91.28
80186;BME280;69904;52.122;5.422;2023-08-31T06:52:49;100955.00;;;12.46;90.86
80186;BME280;69904;52.122;5.422;2023-08-31T06:55:15;100956.28;;;12.50;90.92
80186;BME280;69904;52.122;5.422;2023-08-31T06:57:41;100966.25;;;12.56;90.84
80186;BME280;69904;52.122;5.422;2023-08-31T07:00:09;100968.13;;;12.55;90.76
80186;BME280;69904;52.122;5.422;2023-08-31T07:02:41;100973.34;;;12.57;90.98
80186;BME280;69904;52.122;5.422;2023-08-31T07:05:10;100977.53;;;12.59;91.24
80186;BME280;69904;52.122;5.422;2023-08-31T07:07:36;100972.50;;;12.63;91.00
80186;BME280;69904;52.122;5.422;2023-08-31T07:10:03;100977.28;;;12.68;91.00
80186;BME280;69904;52.122;5.422;2023-08-31T07:12:32;100988.97;;;12.75;90.91
80186;BME280;69904;52.122;5.422;2023-08-31T07:14:58;100982.72;;;12.81;90.99
80186;BME280;69904;52.122;5.422;2023-08-31T07:17:24;100979.38;;;12.85;91.39
80186;BME280;69904;52.122;5.422;2023-08-31T07:19:52;100986.47;;;12.86;91.39
80186;BME280;69904;52.122;5.422;2023-08-31T07:22:18;100991.91;;;12.86;91.39
80186;BME280;69904;52.122;5.422;2023-08-31T07:24:45;100993.34;;;12.89;91.00
80186;BME280;69904;52.122;5.422;2023-08-31T07:27:11;100998.16;;;12.87;91.41
80186;BME280;69904;52.122;5.422;2023-08-31T07:29:38;100993.56;;;12.87;91.47
80186;BME280;69904;52.122;5.422;2023-08-31T07:32:04;100996.47;;;12.86;91.42
80186;BME280;69904;52.122;5.422;2023-08-31T07:34:31;101000.41;;;12.83;91.11
80186;BME280;69904;52.122;5.422;2023-08-31T07:36:59;101007.50;;;12.84;91.12
80186;BME280;69904;52.122;5.422;2023-08-31T07:39:25;101000.44;;;12.90;91.69
80186;BME280;69904;52.122;5.422;2023-08-31T07:41:54;101005.63;;;13.04;91.28
80186;BME280;69904;52.122;5.422;2023-08-31T07:44:20;101005.00;;;13.09;91.30
80186;BME280;69904;52.122;5.422;2023-08-31T07:46:47;101003.13;;;13.09;91.58
80186;BME280;69904;52.122;5.422;2023-08-31T07:49:14;101017.34;;;13.12;91.37
80186;BME280;69904;52.122;5.422;2023-08-31T07:51:40;101005.22;;;13.14;91.38
80186;BME280;69904;52.122;5.422;2023-08-31T07:54:07;101016.69;;;13.16;91.13
80186;BME280;69904;52.122;5.422;2023-08-31T07:56:33;101015.47;;;13.12;91.23
80186;BME280;69904;52.122;5.422;2023-08-31T07:59:00;101017.13;;;13.13;91.15
80186;BME280;69904;52.122;5.422;2023-08-31T08:01:26;101022.53;;;13.06;91.06
80186;BME280;69904;52.122;5.422;2023-08-31T08:03:53;101025.03;;;13.08;90.91
80186;BME280;69904;52.122;5.422;2023-08-31T08:06:20;101029.38;;;13.09;91.10
80186;BME280;69904;52.122;5.422;2023-08-31T08:08:46;101034.44;;;13.12;90.68
80186;BME280;69904;52.122;5.422;2023-08-31T08:11:13;101028.19;;;13.18;90.86
80186;BME280;69904;52.122;5.422;2023-08-31T08:13:39;101022.94;;;13.23;91.15
80186;BME280;69904;52.122;5.422;2023-08-31T08:16:06;101021.47;;;13.27;91.29
80186;BME280;69904;52.122;5.422;2023-08-31T08:18:33;101033.56;;;13.31;91.13
80186;BME280;69904;52.122;5.422;2023-08-31T08:20:59;101028.97;;;13.38;91.08
80186;BME280;69904;52.122;5.422;2023-08-31T08:23:26;101027.94;;;13.39;91.00
80186;BME280;69904;52.122;5.422;2023-08-31T08:25:52;101036.47;;;13.49;91.20
80186;BME280;69904;52.122;5.422;2023-08-31T08:28:19;101036.00;;;13.59;91.17
80186;BME280;69904;52.122;5.422;2023-08-31T08:30:45;101043.13;;;13.60;91.57
80186;BME280;69904;52.122;5.422;2023-08-31T08:33:12;101044.56;;;13.63;91.46
80186;BME280;69904;52.122;5.422;2023-08-31T08:35:39;101051.66;;;13.64;91.40
80186;BME280;69904;52.122;5.422;2023-08-31T08:38:05;101040.38;;;13.67;91.06
80186;BME280;69904;52.122;5.422;2023-08-31T08:40:32;101048.09;;;13.70;91.36
80186;BME280;69904;52.122;5.422;2023-08-31T08:43:06;101046.00;;;13.72;90.73
80186;BME280;69904;52.122;5.422;2023-08-31T08:45:36;101051.44;;;13.72;90.83
80186;BME280;69904;52.122;5.422;2023-08-31T08:48:06;101051.00;;;13.75;90.84
80186;BME280;69904;52.122;5.422;2023-08-31T08:50:35;101050.34;;;13.79;90.75
80186;BME280;69904;52.122;5.422;2023-08-31T08:53:03;101050.13;;;13.87;90.97
80186;BME280;69904;52.122;5.422;2023-08-31T08:55:30;101054.44;;;14.08;91.12
80186;BME280;69904;52.122;5.422;2023-08-31T08:57:58;101053.50;;;14.27;91.07
80186;BME280;69904;52.122;5.422;2023-08-31T09:00:26;101061.41;;;14.42;90.65
80186;BME280;69904;52.122;5.422;2023-08-31T09:02:54;101053.38;;;14.54;90.30
80186;BME280;69904;52.122;5.422;2023-08-31T09:05:20;101052.69;;;14.65;89.86
80186;BME280;69904;52.122;5.422;2023-08-31T09:08:01;101054.91;;;14.74;89.33
80186;BME280;69904;52.122;5.422;2023-08-31T09:10:39;101048.50;;;14.94;89.39
80186;BME280;69904;52.122;5.422;2023-08-31T09:13:10;101062.16;;;15.12;88.78
80186;BME280;69904;52.122;5.422;2023-08-31T09:15:47;101047.81;;;15.23;87.78
80186;BME280;69904;52.122;5.422;2023-08-31T09:18:25;101042.22;;;15.43;86.67
80186;BME280;69904;52.122;5.422;2023-08-31T09:20:53;101046.97;;;15.54;86.63
80186;BME280;69904;52.122;5.422;2023-08-31T09:23:20;101056.25;;;15.40;85.47
80186;BME280;69904;52.122;5.422;2023-08-31T09:25:53;101055.19;;;15.41;85.39
80186;BME280;69904;52.122;5.422;2023-08-31T09:28:26;101048.59;;;15.30;84.56
80186;BME280;69904;52.122;5.422;2023-08-31T09:31:05;101048.44;;;15.25;85.32
80186;BME280;69904;52.122;5.422;2023-08-31T09:33:34;101054.34;;;15.22;85.68
80186;BME280;69904;52.122;5.422;2023-08-31T09:36:00;101053.94;;;15.18;86.13
80186;BME280;69904;52.122;5.422;2023-08-31T09:38:27;101057.94;;;15.16;85.92
80186;BME280;69904;52.122;5.422;2023-08-31T09:41:04;101066.47;;;15.20;85.88
80186;BME280;69904;52.122;5.422;2023-08-31T09:43:32;101068.16;;;15.21;85.93
80186;BME280;69904;52.122;5.422;2023-08-31T09:45:58;101073.47;;;15.34;85.74
80186;BME280;69904;52.122;5.422;2023-08-31T09:48:26;101063.44;;;15.59;85.29
80186;BME280;69904;52.122;5.422;2023-08-31T09:50:54;101051.13;;;15.75;85.12
80186;BME280;69904;52.122;5.422;2023-08-31T09:53:23;101051.66;;;15.83;83.49
80186;BME280;69904;52.122;5.422;2023-08-31T09:55:54;101048.53;;;15.98;83.97
80186;BME280;69904;52.122;5.422;2023-08-31T09:58:23;101043.06;;;16.16;83.14
80186;BME280;69904;52.122;5.422;2023-08-31T10:00:51;101054.88;;;16.28;81.79
80186;BME280;69904;52.122;5.422;2023-08-31T10:03:20;101048.63;;;16.39;81.28
80186;BME280;69904;52.122;5.422;2023-08-31T10:05:49;101057.81;;;16.57;81.22
80186;BME280;69904;52.122;5.422;2023-08-31T10:08:16;101053.44;;;16.56;76.68
80186;BME280;69904;52.122;5.422;2023-08-31T10:10:44;101060.59;;;16.68;75.61
80186;BME280;69904;52.122;5.422;2023-08-31T10:13:11;101050.22;;;16.77;74.64
80186;BME280;69904;52.122;5.422;2023-08-31T10:15:38;101053.06;;;16.94;74.72
80186;BME280;69904;52.122;5.422;2023-08-31T10:18:06;101050.97;;;17.07;73.85
80186;BME280;69904;52.122;5.422;2023-08-31T10:20:34;101049.94;;;17.20;71.82
80186;BME280;69904;52.122;5.422;2023-08-31T10:23:04;101045.19;;;17.27;69.96
80186;BME280;69904;52.122;5.422;2023-08-31T10:28:24;101048.16;;;17.49;66.40
80186;BME280;69904;52.122;5.422;2023-08-31T10:31:02;101059.56;;;17.57;65.77
80186;BME280;69904;52.122;5.422;2023-08-31T10:33:40;101059.09;;;17.60;64.22
80186;BME280;69904;52.122;5.422;2023-08-31T10:36:19;101047.91;;;17.74;63.99
80186;BME280;69904;52.122;5.422;2023-08-31T10:41:24;101055.34;;;18.01;63.19
80186;BME280;69904;52.122;5.422;2023-08-31T10:43:53;101043.13;;;18.04;63.05
80186;BME280;69904;52.122;5.422;2023-08-31T10:51:29;101067.97;;;18.31;59.96
80186;BME280;69904;52.122;5.422;2023-08-31T10:54:07;101059.19;;;18.29;60.11
80186;BME280;69904;52.122;5.422;2023-08-31T10:59:48;101052.94;;;18.45;58.44
80186;BME280;69904;52.122;5.422;2023-08-31T11:02:29;101055.78;;;18.50;58.30
80186;BME280;69904;52.122;5.422;2023-08-31T11:07:32;101051.72;;;18.64;57.53
80186;BME280;69904;52.122;5.422;2023-08-31T11:10:09;101056.50;;;18.57;54.79
80186;BME280;69904;52.122;5.422;2023-08-31T11:12:37;101057.88;;;18.60;55.67
80186;BME280;69904;52.122;5.422;2023-08-31T11:15:04;101066.69;;;18.62;55.37
80186;BME280;69904;52.122;5.422;2023-08-31T11:17:31;101063.81;;;18.68;54.53
80186;BME280;69904;52.122;5.422;2023-08-31T11:19:59;101072.34;;;18.72;53.59
80186;BME280;69904;52.122;5.422;2023-08-31T11:22:27;101067.69;;;18.72;54.76
80186;BME280;69904;52.122;5.422;2023-08-31T11:24:53;101065.28;;;18.76;54.93
80186;BME280;69904;52.122;5.422;2023-08-31T11:27:20;101065.75;;;18.84;56.33
80186;BME280;69904;52.122;5.422;2023-08-31T11:29:47;101064.16;;;18.88;55.86
80186;BME280;69904;52.122;5.422;2023-08-31T11:32:14;101074.38;;;18.93;55.36
80186;BME280;69904;52.122;5.422;2023-08-31T11:34:41;101069.97;;;18.92;54.97
80186;BME280;69904;52.122;5.422;2023-08-31T11:37:10;101083.41;;;18.93;54.82
80186;BME280;69904;52.122;5.422;2023-08-31T11:39:37;101083.31;;;18.88;54.04
80186;BME280;69904;52.122;5.422;2023-08-31T11:42:06;101073.44;;;18.87;53.86
80186;BME280;69904;52.122;5.422;2023-08-31T11:44:33;101069.88;;;18.87;54.38
80186;BME280;69904;52.122;5.422;2023-08-31T11:46:59;101071.38;;;18.78;53.67
80186;BME280;69904;52.122;5.422;2023-08-31T11:49:27;101072.53;;;18.82;53.34
80186;BME280;69904;52.122;5.422;2023-08-31T11:51:54;101068.38;;;18.79;52.73
80186;BME280;69904;52.122;5.422;2023-08-31T11:54:24;101072.44;;;18.77;53.09
80186;BME280;69904;52.122;5.422;2023-08-31T11:56:51;101069.47;;;18.78;53.68
80186;BME280;69904;52.122;5.422;2023-08-31T11:59:19;101076.09;;;18.82;52.60
80186;BME280;69904;52.122;5.422;2023-08-31T12:01:47;101076.31;;;18.81;52.48
80186;BME280;69904;52.122;5.422;2023-08-31T12:04:16;101067.88;;;18.82;51.70
80186;BME280;69904;52.122;5.422;2023-08-31T12:06:46;101070.94;;;18.86;52.75
80186;BME280;69904;52.122;5.422;2023-08-31T12:09:16;101072.03;;;18.85;51.92
80186;BME280;69904;52.122;5.422;2023-08-31T12:11:49;101074.78;;;18.85;51.28
80186;BME280;69904;52.122;5.422;2023-08-31T12:14:20;101070.38;;;18.84;51.23
80186;BME280;69904;52.122;5.422;2023-08-31T12:16:47;101063.00;;;18.84;51.78
80186;BME280;69904;52.122;5.422;2023-08-31T12:19:14;101070.84;;;18.81;51.59
80186;BME280;69904;52.122;5.422;2023-08-31T12:21:42;101077.16;;;18.81;51.72
80186;BME280;69904;52.122;5.422;2023-08-31T12:24:10;101061.94;;;18.85;52.70
80186;BME280;69904;52.122;5.422;2023-08-31T12:26:36;101076.84;;;18.95;52.02
80186;BME280;69904;52.122;5.422;2023-08-31T12:29:03;101072.69;;;18.92;51.97
80186;BME280;69904;52.122;5.422;2023-08-31T12:31:33;101079.75;;;18.88;51.69
80186;BME280;69904;52.122;5.422;2023-08-31T12:33:59;101078.53;;;18.96;53.33
80186;BME280;69904;52.122;5.422;2023-08-31T12:36:26;101092.63;;;19.04;51.92
80186;BME280;69904;52.122;5.422;2023-08-31T12:38:53;101083.66;;;19.09;52.46
80186;BME280;69904;52.122;5.422;2023-08-31T12:41:19;101085.41;;;19.15;52.60
80186;BME280;69904;52.122;5.422;2023-08-31T12:43:50;101084.34;;;19.16;52.21
80186;BME280;69904;52.122;5.422;2023-08-31T12:46:16;101090.97;;;19.20;53.02
80186;BME280;69904;52.122;5.422;2023-08-31T12:48:43;101089.06;;;19.20;51.95
80186;BME280;69904;52.122;5.422;2023-08-31T12:51:09;101088.56;;;19.07;52.63
80186;BME280;69904;52.122;5.422;2023-08-31T12:53:39;101086.97;;;18.94;52.90
80186;BME280;69904;52.122;5.422;2023-08-31T12:56:06;101091.75;;;18.87;52.55
80186;BME280;69904;52.122;5.422;2023-08-31T12:58:32;101087.72;;;18.89;53.60
80186;BME280;69904;52.122;5.422;2023-08-31T13:00:59;101097.00;;;18.88;53.15
80186;BME280;69904;52.122;5.422;2023-08-31T13:03:26;101095.78;;;18.96;52.88
80186;BME280;69904;52.122;5.422;2023-08-31T13:05:53;101096.34;;;18.98;52.61
80186;BME280;69904;52.122;5.422;2023-08-31T13:08:19;101095.69;;;19.08;52.27
80186;BME280;69904;52.122;5.422;2023-08-31T13:10:53;101093.53;;;19.10;52.54
80186;BME280;69904;52.122;5.422;2023-08-31T13:13:21;101110.53;;;19.12;52.51